メインページ
METAR-TAF:

METAR-TAF

空港 :

リマ, ペルー

ホルヘ・チャベス国際空港

緯度: 12-00S, 経度: 077-07W, 海抜: 12m

現時点の気象観測

当レポートは1時間0分前の05:00(UTC)に作成
南/南東の風 9kt
気温 21°C
湿度 94%
気圧 1014 hPa
視程: 2000m
高度500ftの雲はほとんどない
高度7000ftの雲は散在している

METAR: SPJC 250500Z 16009KT 5000 2000NW BR FEW005 SCT070 21/20 Q1014 TEMPO 3000 RMK PP000

時間: 01:00 (06:00 UTC)

予報

当レポートは20時間0分前の10:00(UTC)に作成
予報は24日の 10時(UTC)から 25日の 06時(UTC)まで有効
の風 7kt
視程: 8000m
高度300ftの雲は散在している
高度5000ftの千切れ雲あり
24日の 11時(UTC)から 24日の 13時(UTC)まで一時的に
視程: 5000m
高度300ftの千切れ雲あり
24日の 14時(UTC)から 24日の 15時(UTC)まで徐々に
西/南西の風 6kt
視程10km以上
高度700ftの雲は散在している
高度1500ftの雲は散在している
24日の 1800時(UTC)から
の風 12kt
視程10km以上
1,500メートル以下は雲なし、積乱雲なし

TAF: SPJC 241000Z 2410/2506 18007KT 8000 SCT003 BKN050 TX24/2419Z TN20/2511Z TEMPO 2411/2413 5000 BR BKN003 BECMG 2414/2415 25006KT 9999 SCT007 SCT015 FM241800 18012KT CAVOK

4,000以上の空港の気象観測と天気予報(METAR報とTAF報)

利用可能な観測所は地図上に黄色い丸と赤い丸で示す。

丸の上にカーソルを重ねると観測所名を参照できる。

次にクリックすると気象観測と天気予報を参照できる。

マップの切り替え:黒色「×」印の緑ボタンをクリックして拡大、「-」印の緑ボタンをクリックして縮小、緑色の三角印をクリックして隣りの地図に切り替え


METAR-TAF: